createdAt,value
2023-03-18T00:00:17.051Z,66.62
2023-03-18T00:02:47.975Z,66.52
2023-03-18T00:05:16.224Z,66.62
2023-03-18T00:07:45.444Z,66.52
2023-03-18T00:10:13.568Z,66.56
2023-03-18T00:12:41.736Z,66.59
2023-03-18T00:15:10.568Z,66.60
2023-03-18T00:17:40.330Z,66.67
2023-03-18T00:20:09.505Z,66.64
2023-03-18T00:22:37.993Z,66.59
2023-03-18T00:25:07.245Z,66.52
2023-03-18T00:27:35.956Z,66.47
2023-03-18T00:30:05.657Z,66.41
2023-03-18T00:32:34.495Z,66.30
2023-03-18T00:35:02.568Z,66.17
2023-03-18T00:37:31.765Z,66.10
2023-03-18T00:40:07.961Z,66.13
2023-03-18T00:42:47.653Z,66.02
2023-03-18T00:45:16.289Z,65.89
2023-03-18T00:47:50.288Z,65.81
2023-03-18T00:50:20.501Z,65.83
2023-03-18T00:52:49.204Z,66.00
2023-03-18T00:55:17.529Z,65.95
2023-03-18T00:57:45.536Z,65.93
2023-03-18T01:00:17.056Z,65.84
2023-03-18T01:02:45.777Z,65.89
2023-03-18T01:05:14.352Z,65.79
2023-03-18T01:07:42.762Z,65.80
2023-03-18T01:10:13.184Z,65.74
2023-03-18T01:12:44.122Z,65.72
2023-03-18T01:15:12.789Z,65.76
2023-03-18T01:17:40.950Z,65.70
2023-03-18T01:20:11.648Z,65.81
2023-03-18T01:22:43.467Z,65.96
2023-03-18T01:25:12.165Z,65.99
2023-03-18T01:27:40.811Z,65.99
2023-03-18T01:30:10.005Z,66.14
2023-03-18T01:32:48.067Z,65.90
2023-03-18T01:35:16.433Z,65.95
2023-03-18T01:37:47.170Z,65.95
2023-03-18T01:40:16.219Z,65.87
2023-03-18T01:42:47.469Z,65.85
2023-03-18T01:45:18.206Z,65.77
2023-03-18T01:47:47.626Z,65.77
2023-03-18T01:50:18.913Z,65.79
2023-03-18T01:52:46.934Z,65.83
2023-03-18T01:55:17.163Z,65.85
2023-03-18T01:57:45.444Z,65.83
2023-03-18T02:00:15.638Z,65.79
2023-03-18T02:02:45.570Z,65.74
2023-03-18T02:05:14.703Z,65.62
2023-03-18T02:07:45.834Z,65.55
2023-03-18T02:10:34.556Z,65.64
2023-03-18T02:13:04.631Z,65.69
2023-03-18T02:15:43.124Z,65.64
2023-03-18T02:18:34.585Z,65.61
2023-03-18T02:21:02.827Z,65.62
2023-03-18T02:23:42.948Z,65.40
2023-03-18T02:26:20.539Z,65.32
2023-03-18T02:28:49.545Z,65.17
2023-03-18T02:31:19.184Z,65.14
2023-03-18T02:33:47.350Z,64.97
2023-03-18T02:36:21.799Z,65.00
2023-03-18T02:38:51.526Z,64.94
2023-03-18T02:41:26.522Z,64.88
2023-03-18T02:43:54.563Z,64.77
2023-03-18T02:46:31.164Z,64.64
2023-03-18T02:49:00.631Z,64.61
2023-03-18T02:51:30.372Z,64.65
2023-03-18T02:54:08.466Z,64.65
2023-03-18T02:56:38.399Z,64.55
2023-03-18T02:59:07.599Z,64.46
2023-03-18T03:01:36.907Z,64.43
2023-03-18T03:04:05.312Z,64.30
2023-03-18T03:06:34.443Z,64.31
2023-03-18T03:09:03.651Z,64.23
2023-03-18T03:11:31.829Z,64.09
2023-03-18T03:14:07.121Z,64.02
2023-03-18T03:16:37.043Z,64.03
2023-03-18T03:19:06.033Z,64.14
2023-03-18T03:21:36.180Z,63.98
2023-03-18T03:24:04.528Z,63.90
2023-03-18T03:26:36.761Z,63.87
2023-03-18T03:29:07.239Z,63.93
2023-03-18T03:31:35.327Z,63.82
2023-03-18T03:34:06.166Z,63.82
2023-03-18T03:36:34.298Z,63.84
2023-03-18T03:39:04.359Z,63.79
2023-03-18T03:41:36.792Z,63.69
2023-03-18T03:44:05.075Z,63.70
2023-03-18T03:46:33.158Z,63.55
2023-03-18T03:49:01.321Z,63.52
2023-03-18T03:51:30.738Z,63.45
2023-03-18T03:53:59.425Z,63.55
2023-03-18T03:56:28.523Z,63.48
2023-03-18T03:58:56.695Z,63.47
2023-03-18T04:01:25.752Z,63.54
2023-03-18T04:03:56.015Z,63.54
2023-03-18T04:06:24.091Z,63.71
2023-03-18T04:09:00.432Z,63.71
2023-03-18T04:11:28.552Z,63.72
2023-03-18T04:13:56.691Z,63.78
2023-03-18T04:16:28.780Z,63.89
2023-03-18T04:18:57.741Z,63.94
2023-03-18T04:21:25.787Z,63.96
2023-03-18T04:23:57.454Z,63.86
2023-03-18T04:26:26.191Z,63.91
2023-03-18T04:28:57.537Z,63.84
2023-03-18T04:31:25.977Z,63.95
2023-03-18T04:33:55.573Z,64.03
2023-03-18T04:36:24.489Z,64.08
2023-03-18T04:38:52.722Z,64.17
2023-03-18T04:41:22.634Z,64.31
2023-03-18T04:43:50.803Z,64.24
2023-03-18T04:46:19.369Z,64.27
2023-03-18T04:48:47.532Z,64.25
2023-03-18T04:51:15.606Z,64.25
2023-03-18T04:53:49.500Z,64.33
2023-03-18T04:56:18.846Z,64.37
2023-03-18T04:58:50.974Z,64.29
2023-03-18T05:01:23.548Z,64.24
2023-03-18T05:03:51.977Z,64.11
2023-03-18T05:06:30.893Z,64.12
2023-03-18T05:09:05.555Z,63.97
2023-03-18T05:11:39.812Z,63.89
2023-03-18T05:14:21.447Z,63.79
2023-03-18T05:16:50.299Z,63.68
2023-03-18T05:19:19.966Z,63.58
2023-03-18T05:21:54.357Z,63.43
2023-03-18T05:24:23.048Z,63.45
2023-03-18T05:27:00.228Z,63.37
2023-03-18T05:29:34.686Z,63.36
2023-03-18T05:32:11.646Z,63.21
2023-03-18T05:34:40.244Z,63.08
2023-03-18T05:37:09.122Z,62.97
2023-03-18T05:39:40.366Z,62.78
2023-03-18T05:42:11.678Z,62.75
2023-03-18T05:44:40.658Z,62.67
2023-03-18T05:47:10.894Z,62.85
2023-03-18T05:50:00.013Z,62.85
2023-03-18T05:52:29.319Z,62.76
2023-03-18T05:55:01.234Z,62.69
2023-03-18T05:57:32.863Z,62.65
2023-03-18T06:00:05.057Z,62.71
2023-03-18T06:02:56.485Z,62.63
2023-03-18T06:05:24.930Z,62.30
2023-03-18T06:07:54.119Z,62.26
2023-03-18T06:10:23.045Z,62.13
2023-03-18T06:12:55.500Z,61.98
2023-03-18T06:15:24.478Z,61.86
2023-03-18T06:17:54.100Z,61.84
2023-03-18T06:20:22.658Z,61.68
2023-03-18T06:22:52.899Z,61.64
2023-03-18T06:25:21.901Z,61.65
2023-03-18T06:27:50.688Z,61.56
2023-03-18T06:30:25.046Z,61.41
2023-03-18T06:32:57.246Z,61.31
2023-03-18T06:35:32.642Z,61.34
2023-03-18T06:38:01.628Z,61.31
2023-03-18T06:40:30.197Z,61.22
2023-03-18T06:42:59.176Z,61.10
2023-03-18T06:45:34.510Z,60.91
2023-03-18T06:48:07.324Z,60.63
2023-03-18T06:50:39.775Z,60.70
2023-03-18T06:53:12.859Z,60.75
2023-03-18T06:55:41.573Z,60.56
2023-03-18T06:58:10.636Z,60.45
2023-03-18T07:00:47.679Z,60.49
2023-03-18T07:03:22.725Z,60.49
2023-03-18T07:05:52.526Z,60.50
2023-03-18T07:08:23.738Z,60.66
2023-03-18T07:10:54.025Z,60.62
2023-03-18T07:13:27.090Z,60.59
2023-03-18T07:16:00.537Z,60.51
2023-03-18T07:18:28.921Z,60.52
2023-03-18T07:20:59.768Z,60.47
2023-03-18T07:23:28.872Z,60.46
2023-03-18T07:25:58.900Z,60.25
2023-03-18T07:28:27.172Z,60.31
2023-03-18T07:30:55.427Z,60.28
2023-03-18T07:33:26.117Z,60.24
2023-03-18T07:35:56.868Z,60.54
2023-03-18T07:38:25.604Z,60.69
2023-03-18T07:40:53.673Z,60.66
2023-03-18T07:43:22.547Z,60.78
2023-03-18T07:45:52.746Z,60.76
2023-03-18T07:48:22.311Z,60.71
2023-03-18T07:50:50.374Z,60.71
2023-03-18T07:53:19.198Z,60.80
2023-03-18T07:55:47.430Z,60.65
2023-03-18T07:58:15.553Z,60.57
2023-03-18T08:00:45.282Z,60.65
2023-03-18T08:03:14.298Z,60.52
2023-03-18T08:05:43.712Z,60.31
2023-03-18T08:08:12.685Z,60.10
2023-03-18T08:10:42.393Z,59.93
2023-03-18T08:13:13.244Z,59.85
2023-03-18T08:15:41.511Z,59.73
2023-03-18T08:18:10.504Z,59.53
2023-03-18T08:20:39.832Z,59.43
2023-03-18T08:23:08.344Z,59.24
2023-03-18T08:25:36.232Z,59.21
2023-03-18T08:28:07.710Z,59.09
2023-03-18T08:30:35.997Z,58.92
2023-03-18T08:33:04.131Z,58.69
2023-03-18T08:35:34.306Z,58.55
2023-03-18T08:38:07.036Z,58.44
2023-03-18T08:40:39.973Z,58.27
2023-03-18T08:43:08.505Z,58.11
2023-03-18T08:45:36.534Z,57.94
2023-03-18T08:48:05.378Z,57.89
2023-03-18T08:50:35.973Z,58.03
2023-03-18T08:53:04.431Z,58.05
2023-03-18T08:55:37.243Z,57.99
2023-03-18T08:58:05.916Z,57.85
2023-03-18T09:00:34.963Z,57.52
2023-03-18T09:03:04.135Z,57.26
2023-03-18T09:05:33.105Z,57.26
2023-03-18T09:08:01.181Z,57.13
2023-03-18T09:10:30.424Z,57.00
2023-03-18T09:12:58.435Z,56.60
2023-03-18T09:15:27.476Z,56.35
2023-03-18T09:18:10.433Z,56.55
2023-03-18T09:20:40.418Z,56.69
2023-03-18T09:23:09.236Z,56.70
2023-03-18T09:25:39.052Z,56.79
2023-03-18T09:28:06.999Z,56.86
2023-03-18T09:30:38.241Z,56.88
2023-03-18T09:33:07.822Z,57.09
2023-03-18T09:35:36.711Z,57.21
2023-03-18T09:38:06.789Z,57.29
2023-03-18T09:40:37.947Z,57.33
2023-03-18T09:43:25.659Z,57.22
2023-03-18T09:46:00.688Z,57.10
2023-03-18T09:48:34.894Z,57.19
2023-03-18T09:51:19.395Z,57.34
2023-03-18T09:53:52.246Z,57.27
2023-03-18T09:56:24.862Z,57.36
2023-03-18T09:58:53.946Z,57.26
2023-03-18T10:01:22.881Z,57.24
2023-03-18T10:03:51.116Z,57.08
2023-03-18T10:06:20.617Z,56.94
2023-03-18T10:08:54.784Z,56.62
2023-03-18T10:11:24.155Z,56.82
2023-03-18T10:13:54.680Z,57.16
2023-03-18T10:16:24.009Z,57.34
2023-03-18T10:18:52.091Z,57.41
2023-03-18T10:21:27.756Z,57.32
2023-03-18T10:23:58.301Z,57.25
2023-03-18T10:26:36.071Z,57.19
2023-03-18T10:29:23.116Z,57.15
2023-03-18T10:32:11.775Z,56.90
2023-03-18T10:34:41.246Z,56.67
2023-03-18T10:37:21.867Z,56.27
2023-03-18T10:39:50.249Z,55.83
2023-03-18T10:42:20.782Z,55.51
2023-03-18T10:44:49.240Z,55.49
2023-03-18T10:47:19.869Z,55.62
2023-03-18T10:49:51.763Z,55.67
2023-03-18T10:52:46.487Z,55.43
2023-03-18T10:55:18.732Z,54.98
2023-03-18T10:57:47.913Z,55.11
2023-03-18T11:00:26.039Z,55.09
2023-03-18T11:02:55.417Z,55.35
2023-03-18T11:05:31.841Z,55.41
2023-03-18T11:08:01.364Z,55.14
2023-03-18T11:10:32.280Z,54.95
2023-03-18T11:13:02.552Z,54.77
2023-03-18T11:15:34.758Z,54.55
2023-03-18T11:18:03.363Z,54.43
2023-03-18T11:20:43.253Z,54.54
2023-03-18T11:23:46.247Z,54.36
2023-03-18T11:26:20.904Z,54.16
2023-03-18T11:28:49.695Z,54.23
2023-03-18T11:31:18.842Z,54.23
2023-03-18T11:33:47.429Z,53.96
2023-03-18T11:36:27.030Z,53.67
2023-03-18T11:38:56.315Z,53.69
2023-03-18T11:41:24.940Z,53.77
2023-03-18T11:44:00.547Z,53.73
2023-03-18T11:47:04.529Z,53.73
2023-03-18T11:49:32.857Z,53.48
2023-03-18T11:52:04.249Z,53.19
2023-03-18T11:54:42.676Z,53.24
2023-03-18T11:57:19.098Z,53.29
2023-03-18T12:00:00.987Z,53.25
2023-03-18T12:02:35.636Z,53.24
2023-03-18T12:05:26.697Z,53.69
2023-03-18T12:07:57.734Z,54.12
2023-03-18T12:10:29.908Z,54.35
2023-03-18T12:13:14.223Z,54.75
2023-03-18T12:15:48.562Z,55.16
2023-03-18T12:18:23.229Z,55.39
2023-03-18T12:20:55.584Z,55.46
2023-03-18T12:23:44.663Z,55.60
2023-03-18T12:26:16.108Z,55.76
2023-03-18T12:28:50.661Z,55.75
2023-03-18T12:31:55.614Z,55.73
2023-03-18T12:34:33.530Z,55.71
2023-03-18T12:37:08.956Z,55.73
2023-03-18T12:39:41.927Z,55.78
2023-03-18T12:42:29.504Z,55.77
2023-03-18T12:44:58.166Z,55.68
2023-03-18T12:47:41.138Z,55.41
2023-03-18T12:50:19.812Z,55.42
2023-03-18T12:52:48.731Z,55.57
2023-03-18T12:55:21.863Z,55.43
2023-03-18T12:57:54.624Z,55.42
2023-03-18T13:00:28.935Z,55.40
2023-03-18T13:03:00.210Z,55.47
2023-03-18T13:05:37.072Z,55.35
2023-03-18T13:08:05.590Z,55.33
2023-03-18T13:10:34.909Z,55.19
2023-03-18T13:13:04.065Z,55.12
2023-03-18T13:15:43.478Z,55.07
2023-03-18T13:18:14.957Z,54.82
2023-03-18T13:20:42.889Z,54.82
2023-03-18T13:23:44.103Z,54.84
2023-03-18T13:26:30.733Z,54.78
2023-03-18T13:29:19.952Z,54.65
2023-03-18T13:31:54.098Z,54.48
2023-03-18T13:34:40.858Z,54.47
2023-03-18T13:37:36.399Z,54.41
2023-03-18T13:40:20.129Z,54.34
2023-03-18T13:42:49.464Z,54.35
2023-03-18T13:45:24.402Z,54.29
2023-03-18T13:47:56.479Z,54.24
2023-03-18T13:50:25.417Z,54.15
2023-03-18T13:52:54.174Z,54.15
2023-03-18T13:55:26.486Z,54.27
2023-03-18T13:58:18.291Z,54.38
2023-03-18T14:01:09.250Z,54.15
2023-03-18T14:03:41.811Z,54.18
2023-03-18T14:06:32.037Z,54.17
2023-03-18T14:09:00.642Z,54.09
2023-03-18T14:11:45.283Z,54.06
2023-03-18T14:14:32.492Z,53.91
2023-03-18T14:17:00.707Z,53.86
2023-03-18T14:19:34.223Z,53.94
2023-03-18T14:22:13.854Z,54.05
2023-03-18T14:24:44.281Z,53.91
2023-03-18T14:27:17.394Z,53.89
2023-03-18T14:29:47.423Z,53.84
2023-03-18T14:32:31.222Z,53.81
2023-03-18T14:35:24.865Z,53.88
2023-03-18T14:37:55.060Z,53.94
2023-03-18T14:40:23.124Z,53.87
2023-03-18T14:42:53.995Z,53.84
2023-03-18T14:45:27.727Z,53.97
2023-03-18T14:47:59.792Z,54.02
2023-03-18T14:51:00.841Z,53.95
2023-03-18T14:53:49.214Z,53.98
2023-03-18T14:56:43.950Z,53.95
2023-03-18T14:59:14.858Z,53.99
2023-03-18T15:01:47.233Z,53.93
2023-03-18T15:04:18.117Z,53.86
2023-03-18T15:06:46.506Z,53.89
2023-03-18T15:09:19.412Z,53.90
2023-03-18T15:11:48.324Z,53.92
2023-03-18T15:14:30.352Z,54.03
2023-03-18T15:16:59.422Z,54.09
2023-03-18T15:19:27.917Z,54.04
2023-03-18T15:21:56.840Z,54.05
2023-03-18T15:24:26.872Z,54.15
2023-03-18T15:26:55.877Z,54.21
2023-03-18T15:29:25.767Z,54.23
2023-03-18T15:31:53.951Z,54.29
2023-03-18T15:34:23.209Z,54.25
2023-03-18T15:37:01.630Z,54.40
2023-03-18T15:39:36.208Z,54.45
2023-03-18T15:42:14.422Z,54.60
2023-03-18T15:44:44.114Z,54.58
2023-03-18T15:47:20.301Z,54.62
2023-03-18T15:49:53.663Z,54.69
2023-03-18T15:52:25.273Z,54.83
2023-03-18T15:54:53.643Z,54.90
2023-03-18T15:57:29.236Z,55.11
2023-03-18T15:59:58.611Z,55.30
2023-03-18T16:02:27.629Z,55.42
2023-03-18T16:05:09.488Z,55.39
2023-03-18T16:07:38.762Z,55.38
2023-03-18T16:10:07.076Z,55.43
2023-03-18T16:12:39.590Z,55.47
2023-03-18T16:15:10.542Z,55.48
2023-03-18T16:17:39.244Z,55.57
2023-03-18T16:20:14.992Z,55.61
2023-03-18T16:22:43.053Z,55.76
2023-03-18T16:25:14.052Z,55.83
2023-03-18T16:27:43.440Z,55.83
2023-03-18T16:30:17.909Z,55.90
2023-03-18T16:32:47.456Z,55.96
2023-03-18T16:35:16.097Z,56.05
2023-03-18T16:37:44.400Z,56.26
2023-03-18T16:40:22.156Z,56.42
2023-03-18T16:42:51.127Z,56.67
2023-03-18T16:45:24.302Z,56.95
2023-03-18T16:47:59.496Z,57.05
2023-03-18T16:50:30.513Z,57.28
2023-03-18T16:52:58.648Z,57.18
2023-03-18T16:55:28.327Z,57.18
2023-03-18T16:58:00.715Z,57.22
2023-03-18T17:00:32.904Z,57.28
2023-03-18T17:03:01.766Z,57.56
2023-03-18T17:05:34.841Z,57.69
2023-03-18T17:08:03.507Z,57.73
2023-03-18T17:10:31.703Z,57.76
2023-03-18T17:13:00.388Z,57.85
2023-03-18T17:15:29.292Z,57.97
2023-03-18T17:17:59.744Z,58.27
2023-03-18T17:20:29.706Z,58.43
2023-03-18T17:23:02.110Z,58.53
2023-03-18T17:25:30.511Z,58.61
2023-03-18T17:27:59.938Z,58.59
2023-03-18T17:30:28.545Z,58.72
2023-03-18T17:33:00.735Z,58.86
2023-03-18T17:35:29.721Z,58.92
2023-03-18T17:37:57.966Z,59.08
2023-03-18T17:40:28.618Z,59.26
2023-03-18T17:43:01.674Z,59.30
2023-03-18T17:45:32.507Z,59.45
2023-03-18T17:48:14.489Z,59.49
2023-03-18T17:50:43.363Z,59.63
2023-03-18T17:53:31.557Z,59.67
2023-03-18T17:55:59.767Z,59.86
2023-03-18T17:58:30.163Z,59.94
2023-03-18T18:01:03.759Z,60.13
2023-03-18T18:03:31.788Z,60.26
2023-03-18T18:06:00.592Z,60.40
2023-03-18T18:08:29.454Z,60.45
2023-03-18T18:11:20.197Z,60.47
2023-03-18T18:13:48.920Z,60.51
2023-03-18T18:16:17.042Z,60.54
2023-03-18T18:18:49.814Z,60.60
2023-03-18T18:21:21.942Z,60.67
2023-03-18T18:23:49.914Z,60.71
2023-03-18T18:26:18.429Z,60.81
2023-03-18T18:28:48.246Z,60.94
2023-03-18T18:31:19.516Z,61.16
2023-03-18T18:33:50.061Z,61.34
2023-03-18T18:36:18.458Z,61.43
2023-03-18T18:38:46.614Z,61.48
2023-03-18T18:41:15.505Z,61.65
2023-03-18T18:43:45.321Z,61.76
2023-03-18T18:46:17.861Z,61.86
2023-03-18T18:48:47.516Z,61.94
2023-03-18T18:51:17.642Z,61.94
2023-03-18T18:53:46.496Z,61.98
2023-03-18T18:56:14.681Z,62.02
2023-03-18T18:58:43.613Z,62.09
2023-03-18T19:01:13.115Z,62.05
2023-03-18T19:03:42.185Z,62.16
2023-03-18T19:06:16.648Z,62.14
2023-03-18T19:08:53.148Z,62.35
2023-03-18T19:11:21.299Z,62.48
2023-03-18T19:13:51.037Z,62.70
2023-03-18T19:16:25.374Z,62.90
2023-03-18T19:18:53.708Z,63.05
2023-03-18T19:21:24.563Z,63.33
2023-03-18T19:23:52.903Z,63.54
2023-03-18T19:26:21.838Z,63.69
2023-03-18T19:29:01.593Z,63.80
2023-03-18T19:31:35.134Z,63.95
2023-03-18T19:34:05.644Z,64.07
2023-03-18T19:36:37.719Z,64.12
2023-03-18T19:39:06.284Z,64.28
2023-03-18T19:41:35.531Z,64.29
2023-03-18T19:44:11.562Z,64.40
2023-03-18T19:46:44.674Z,64.53
2023-03-18T19:49:15.965Z,64.62
2023-03-18T19:51:44.381Z,64.67
2023-03-18T19:54:19.188Z,64.75
2023-03-18T19:56:47.515Z,64.79
2023-03-18T19:59:23.221Z,64.92
2023-03-18T20:01:51.664Z,65.06
2023-03-18T20:04:19.843Z,65.11
2023-03-18T20:06:50.725Z,65.20
2023-03-18T20:09:18.825Z,65.22
2023-03-18T20:11:47.129Z,65.24
2023-03-18T20:14:25.787Z,65.27
2023-03-18T20:16:54.864Z,65.40
2023-03-18T20:19:23.049Z,65.37
2023-03-18T20:21:52.010Z,65.42
2023-03-18T20:24:22.102Z,65.42
2023-03-18T20:26:53.778Z,65.36
2023-03-18T20:29:24.158Z,65.31
2023-03-18T20:31:52.232Z,65.22
2023-03-18T20:34:21.180Z,65.17
2023-03-18T20:36:50.369Z,65.20
2023-03-18T20:39:24.380Z,65.20
2023-03-18T20:41:57.688Z,65.20
2023-03-18T20:44:25.864Z,65.26
2023-03-18T20:46:53.813Z,65.20
2023-03-18T20:49:23.103Z,65.22
2023-03-18T20:51:51.875Z,65.20
2023-03-18T20:54:21.209Z,65.21
2023-03-18T20:56:51.409Z,65.21
2023-03-18T20:59:19.346Z,65.13
2023-03-18T21:01:48.021Z,65.15
2023-03-18T21:04:19.440Z,65.26
2023-03-18T21:06:48.803Z,65.27
2023-03-18T21:09:17.592Z,65.36
2023-03-18T21:11:52.030Z,65.37
2023-03-18T21:14:21.636Z,65.47
2023-03-18T21:16:51.887Z,65.51
2023-03-18T21:19:21.342Z,65.53
2023-03-18T21:21:49.428Z,65.48
2023-03-18T21:24:25.678Z,65.49
2023-03-18T21:27:04.237Z,65.58
2023-03-18T21:29:33.807Z,65.56
2023-03-18T21:32:03.827Z,65.70
2023-03-18T21:34:33.039Z,65.69
2023-03-18T21:37:03.876Z,65.79
2023-03-18T21:39:34.315Z,65.91
2023-03-18T21:42:02.274Z,66.11
2023-03-18T21:44:30.552Z,66.17
2023-03-18T21:46:58.559Z,66.32
2023-03-18T21:49:27.256Z,66.42
2023-03-18T21:51:55.226Z,66.52
2023-03-18T21:54:24.401Z,66.59
2023-03-18T21:56:55.142Z,66.75
2023-03-18T21:59:23.791Z,66.93
2023-03-18T22:01:52.981Z,67.01
2023-03-18T22:04:22.266Z,67.09
2023-03-18T22:06:51.151Z,67.11
2023-03-18T22:09:19.190Z,67.14
2023-03-18T22:11:47.103Z,67.06
2023-03-18T22:14:15.127Z,67.04
2023-03-18T22:16:44.258Z,66.88
2023-03-18T22:19:12.622Z,66.74
2023-03-18T22:21:40.840Z,66.52
2023-03-18T22:24:11.550Z,66.43
2023-03-18T22:26:40.165Z,66.46
2023-03-18T22:29:12.542Z,66.27
2023-03-18T22:31:43.834Z,66.13
2023-03-18T22:34:22.608Z,66.18
2023-03-18T22:36:50.682Z,66.09
2023-03-18T22:39:18.955Z,66.14
2023-03-18T22:41:54.000Z,66.04
2023-03-18T22:44:22.574Z,66.03
2023-03-18T22:46:50.801Z,65.88
2023-03-18T22:49:20.043Z,65.72
2023-03-18T22:51:48.858Z,65.71
2023-03-18T22:54:19.285Z,65.67
2023-03-18T22:56:48.440Z,65.56
2023-03-18T22:59:16.828Z,65.43
2023-03-18T23:01:46.620Z,65.33
2023-03-18T23:04:15.067Z,65.36
2023-03-18T23:06:44.500Z,65.30
2023-03-18T23:09:13.090Z,65.24
2023-03-18T23:11:41.314Z,65.23
2023-03-18T23:14:10.569Z,65.06
2023-03-18T23:16:40.838Z,65.06
2023-03-18T23:19:08.956Z,65.17
2023-03-18T23:21:37.973Z,65.21
2023-03-18T23:24:06.646Z,65.26
2023-03-18T23:26:36.363Z,65.25
2023-03-18T23:29:05.006Z,65.15
2023-03-18T23:31:33.038Z,65.05
2023-03-18T23:34:01.810Z,64.90
2023-03-18T23:36:30.289Z,64.69
2023-03-18T23:39:00.347Z,64.64
2023-03-18T23:41:30.450Z,64.64
2023-03-18T23:43:58.547Z,64.68
2023-03-18T23:46:27.775Z,64.60
2023-03-18T23:48:55.900Z,64.57
2023-03-18T23:51:23.874Z,64.56
2023-03-18T23:53:53.726Z,64.55
2023-03-18T23:56:26.130Z,64.48
2023-03-18T23:58:54.139Z,64.53
